sensor_id;sensor_type;location;lat;lon;timestamp;pressure;altitude;pressure_sealevel;temperature;humidity
31337;BME280;22846;42.654;23.314;2022-07-04T00:00:44;94758.81;;;30.17;47.56
31337;BME280;22846;42.654;23.314;2022-07-04T00:03:09;94749.03;;;30.16;47.47
31337;BME280;22846;42.654;23.314;2022-07-04T00:05:34;94756.50;;;30.15;47.50
31337;BME280;22846;42.654;23.314;2022-07-04T00:08:00;94757.28;;;30.16;47.70
31337;BME280;22846;42.654;23.314;2022-07-04T00:10:26;94757.28;;;30.16;47.57
31337;BME280;22846;42.654;23.314;2022-07-04T00:12:51;94754.53;;;30.16;47.68
31337;BME280;22846;42.654;23.314;2022-07-04T00:15:17;94753.75;;;30.15;47.54
31337;BME280;22846;42.654;23.314;2022-07-04T00:17:42;94765.56;;;30.16;47.47
31337;BME280;22846;42.654;23.314;2022-07-04T00:20:08;94760.03;;;30.16;47.40
31337;BME280;22846;42.654;23.314;2022-07-04T00:22:34;94754.25;;;30.14;47.47
31337;BME280;22846;42.654;23.314;2022-07-04T00:24:59;94753.00;;;30.15;47.52
31337;BME280;22846;42.654;23.314;2022-07-04T00:27:24;94752.25;;;30.14;47.66
31337;BME280;22846;42.654;23.314;2022-07-04T00:29:50;94751.78;;;30.16;47.83
31337;BME280;22846;42.654;23.314;2022-07-04T00:32:16;94744.72;;;30.15;47.78
31337;BME280;22846;42.654;23.314;2022-07-04T00:34:41;94734.94;;;30.14;47.52
31337;BME280;22846;42.654;23.314;2022-07-04T00:37:06;94747.50;;;30.15;47.41
31337;BME280;22846;42.654;23.314;2022-07-04T00:39:31;94739.22;;;30.15;47.78
31337;BME280;22846;42.654;23.314;2022-07-04T00:41:57;94744.72;;;30.15;47.56
31337;BME280;22846;42.654;23.314;2022-07-04T00:44:22;94739.22;;;30.15;47.62
31337;BME280;22846;42.654;23.314;2022-07-04T00:46:48;94736.16;;;30.13;47.84
31337;BME280;22846;42.654;23.314;2022-07-04T00:49:14;94742.47;;;30.13;47.67
31337;BME280;22846;42.654;23.314;2022-07-04T00:51:40;94741.69;;;30.13;47.50
31337;BME280;22846;42.654;23.314;2022-07-04T00:54:09;94739.69;;;30.13;47.47
31337;BME280;22846;42.654;23.314;2022-07-04T00:56:38;94736.94;;;30.13;47.80
31337;BME280;22846;42.654;23.314;2022-07-04T00:59:03;94737.69;;;30.14;47.90
31337;BME280;22846;42.654;23.314;2022-07-04T01:01:29;94736.16;;;30.13;47.73
31337;BME280;22846;42.654;23.314;2022-07-04T01:03:55;94740.94;;;30.12;47.55
31337;BME280;22846;42.654;23.314;2022-07-04T01:06:20;94741.69;;;30.13;47.70
31337;BME280;22846;42.654;23.314;2022-07-04T01:08:46;94730.66;;;30.13;47.56
31337;BME280;22846;42.654;23.314;2022-07-04T01:11:11;94734.19;;;30.13;47.67
31337;BME280;22846;42.654;23.314;2022-07-04T01:13:37;94724.38;;;30.12;47.46
31337;BME280;22846;42.654;23.314;2022-07-04T01:16:03;94722.88;;;30.11;47.52
31337;BME280;22846;42.654;23.314;2022-07-04T01:18:29;94728.69;;;30.13;47.72
31337;BME280;22846;42.654;23.314;2022-07-04T01:20:54;94721.53;;;30.07;47.51
31337;BME280;22846;42.654;23.314;2022-07-04T01:23:20;94742.16;;;30.11;47.38
31337;BME280;22846;42.654;23.314;2022-07-04T01:25:45;94742.16;;;30.11;47.58
31337;BME280;22846;42.654;23.314;2022-07-04T01:28:10;94745.66;;;30.12;47.64
31337;BME280;22846;42.654;23.314;2022-07-04T01:30:36;94746.44;;;30.12;47.66
31337;BME280;22846;42.654;23.314;2022-07-04T01:33:02;94740.94;;;30.12;47.79
31337;BME280;22846;42.654;23.314;2022-07-04T01:35:27;94734.63;;;30.12;47.85
31337;BME280;22846;42.654;23.314;2022-07-04T01:37:52;94738.19;;;30.12;48.09
31337;BME280;22846;42.654;23.314;2022-07-04T01:40:18;94736.66;;;30.11;48.01
31337;BME280;22846;42.654;23.314;2022-07-04T01:42:43;94733.91;;;30.11;47.87
31337;BME280;22846;42.654;23.314;2022-07-04T01:45:09;94742.16;;;30.11;47.87
31337;BME280;22846;42.654;23.314;2022-07-04T01:47:35;94738.63;;;30.11;47.83
31337;BME280;22846;42.654;23.314;2022-07-04T01:50:01;94746.91;;;30.11;47.92
31337;BME280;22846;42.654;23.314;2022-07-04T01:52:26;94744.13;;;30.11;47.91
31337;BME280;22846;42.654;23.314;2022-07-04T01:54:52;94746.16;;;30.10;48.06
31337;BME280;22846;42.654;23.314;2022-07-04T01:57:17;94748.91;;;30.10;47.72
31337;BME280;22846;42.654;23.314;2022-07-04T01:59:42;94744.13;;;30.11;48.11
31337;BME280;22846;42.654;23.314;2022-07-04T02:02:26;94751.66;;;30.10;48.03
31337;BME280;22846;42.654;23.314;2022-07-04T02:04:51;94748.16;;;30.10;48.01
31337;BME280;22846;42.654;23.314;2022-07-04T02:07:17;94748.16;;;30.10;48.11
31337;BME280;22846;42.654;23.314;2022-07-04T02:09:43;94736.34;;;30.09;47.96
31337;BME280;22846;42.654;23.314;2022-07-04T02:12:08;94746.16;;;30.10;47.80
31337;BME280;22846;42.654;23.314;2022-07-04T02:14:52;94741.13;;;30.09;47.97
31337;BME280;22846;42.654;23.314;2022-07-04T02:17:18;94746.63;;;30.09;47.84
31337;BME280;22846;42.654;23.314;2022-07-04T02:19:44;94752.16;;;30.09;47.71
31337;BME280;22846;42.654;23.314;2022-07-04T02:22:09;94754.13;;;30.08;47.97
31337;BME280;22846;42.654;23.314;2022-07-04T02:24:35;94760.41;;;30.09;48.24
31337;BME280;22846;42.654;23.314;2022-07-04T02:27:01;94758.41;;;30.09;48.05
31337;BME280;22846;42.654;23.314;2022-07-04T02:29:27;94753.66;;;30.10;47.86
31337;BME280;22846;42.654;23.314;2022-07-04T02:31:52;94754.13;;;30.08;48.00
31337;BME280;22846;42.654;23.314;2022-07-04T02:34:17;94753.38;;;30.08;48.12
31337;BME280;22846;42.654;23.314;2022-07-04T02:36:43;94745.09;;;30.08;48.20
31337;BME280;22846;42.654;23.314;2022-07-04T02:39:08;94755.34;;;30.07;48.14
31337;BME280;22846;42.654;23.314;2022-07-04T02:41:33;94756.13;;;30.08;48.15
31337;BME280;22846;42.654;23.314;2022-07-04T02:43:59;94756.13;;;30.08;48.04
31337;BME280;22846;42.654;23.314;2022-07-04T02:46:24;94760.13;;;30.07;47.69
31337;BME280;22846;42.654;23.314;2022-07-04T02:48:50;94764.41;;;30.08;47.74
31337;BME280;22846;42.654;23.314;2022-07-04T02:51:15;94766.38;;;30.07;47.52
31337;BME280;22846;42.654;23.314;2022-07-04T02:53:40;94772.66;;;30.08;47.82
31337;BME280;22846;42.654;23.314;2022-07-04T02:56:06;94771.88;;;30.07;47.59
31337;BME280;22846;42.654;23.314;2022-07-04T02:58:31;94776.66;;;30.07;47.68
31337;BME280;22846;42.654;23.314;2022-07-04T03:00:57;94774.66;;;30.07;47.76
31337;BME280;22846;42.654;23.314;2022-07-04T03:03:22;94770.38;;;30.06;47.69
31337;BME280;22846;42.654;23.314;2022-07-04T03:05:47;94773.91;;;30.07;47.91
31337;BME280;22846;42.654;23.314;2022-07-04T03:08:13;94777.41;;;30.07;48.24
31337;BME280;22846;42.654;23.314;2022-07-04T03:10:38;94782.91;;;30.07;48.01
31337;BME280;22846;42.654;23.314;2022-07-04T03:13:03;94785.69;;;30.07;47.58
31337;BME280;22846;42.654;23.314;2022-07-04T03:15:29;94791.19;;;30.07;47.95
31337;BME280;22846;42.654;23.314;2022-07-04T03:17:54;94783.69;;;30.08;47.97
31337;BME280;22846;42.654;23.314;2022-07-04T03:20:19;94785.69;;;30.07;47.88
31337;BME280;22846;42.654;23.314;2022-07-04T03:22:44;94787.69;;;30.07;48.02
31337;BME280;22846;42.654;23.314;2022-07-04T03:25:10;94788.44;;;30.07;47.73
31337;BME280;22846;42.654;23.314;2022-07-04T03:27:35;94787.69;;;30.07;47.66
31337;BME280;22846;42.654;23.314;2022-07-04T03:30:00;94794.72;;;30.08;47.53
31337;BME280;22846;42.654;23.314;2022-07-04T03:32:25;94789.22;;;30.08;47.47
31337;BME280;22846;42.654;23.314;2022-07-04T03:34:51;94788.44;;;30.07;47.49
31337;BME280;22846;42.654;23.314;2022-07-04T03:37:16;94781.69;;;30.08;47.89
31337;BME280;22846;42.654;23.314;2022-07-04T03:39:41;94783.69;;;30.08;47.73
31337;BME280;22846;42.654;23.314;2022-07-04T03:42:07;94783.69;;;30.08;47.79
31337;BME280;22846;42.654;23.314;2022-07-04T03:44:32;94787.19;;;30.08;47.93
31337;BME280;22846;42.654;23.314;2022-07-04T03:46:57;94789.97;;;30.08;47.71
31337;BME280;22846;42.654;23.314;2022-07-04T03:49:24;94780.94;;;30.08;47.63
31337;BME280;22846;42.654;23.314;2022-07-04T03:51:49;94785.22;;;30.09;47.43
31337;BME280;22846;42.654;23.314;2022-07-04T03:54:14;94784.44;;;30.08;47.56
31337;BME280;22846;42.654;23.314;2022-07-04T03:56:39;94774.19;;;30.09;47.92
31337;BME280;22846;42.654;23.314;2022-07-04T03:59:05;94769.44;;;30.09;47.62
31337;BME280;22846;42.654;23.314;2022-07-04T04:01:30;94770.22;;;30.10;47.75
31337;BME280;22846;42.654;23.314;2022-07-04T04:03:55;94775.72;;;30.10;47.67
31337;BME280;22846;42.654;23.314;2022-07-04T04:06:39;94778.47;;;30.10;48.10
31337;BME280;22846;42.654;23.314;2022-07-04T04:09:05;94782.00;;;30.10;48.01
31337;BME280;22846;42.654;23.314;2022-07-04T04:11:30;94785.50;;;30.11;48.02
31337;BME280;22846;42.654;23.314;2022-07-04T04:13:56;94778.00;;;30.11;47.63
31337;BME280;22846;42.654;23.314;2022-07-04T04:16:21;94776.00;;;30.12;47.90
31337;BME280;22846;42.654;23.314;2022-07-04T04:18:47;94772.50;;;30.11;48.03
31337;BME280;22846;42.654;23.314;2022-07-04T04:21:12;94785.78;;;30.13;47.93
31337;BME280;22846;42.654;23.314;2022-07-04T04:23:37;94783.03;;;30.13;48.06
31337;BME280;22846;42.654;23.314;2022-07-04T04:26:02;94793.63;;;30.14;47.80
31337;BME280;22846;42.654;23.314;2022-07-04T04:28:28;94792.09;;;30.13;47.97
31337;BME280;22846;42.654;23.314;2022-07-04T04:30:53;94787.31;;;30.14;47.88
31337;BME280;22846;42.654;23.314;2022-07-04T04:33:18;94798.66;;;30.16;48.12
31337;BME280;22846;42.654;23.314;2022-07-04T04:35:44;94804.16;;;30.16;47.91
31337;BME280;22846;42.654;23.314;2022-07-04T04:38:09;94801.41;;;30.16;47.93
31337;BME280;22846;42.654;23.314;2022-07-04T04:40:34;94800.19;;;30.17;48.00
31337;BME280;22846;42.654;23.314;2022-07-04T04:43:00;94795.41;;;30.17;48.21
31337;BME280;22846;42.654;23.314;2022-07-04T04:45:25;94798.16;;;30.17;48.23
31337;BME280;22846;42.654;23.314;2022-07-04T04:47:50;94801.69;;;30.18;47.93
31337;BME280;22846;42.654;23.314;2022-07-04T04:50:18;94800.47;;;30.19;47.67
31337;BME280;22846;42.654;23.314;2022-07-04T04:52:43;94800.47;;;30.19;48.24
31337;BME280;22846;42.654;23.314;2022-07-04T04:55:09;94799.22;;;30.20;48.04
31337;BME280;22846;42.654;23.314;2022-07-04T04:57:34;94792.47;;;30.21;48.19
31337;BME280;22846;42.654;23.314;2022-07-04T04:59:59;94795.22;;;30.21;47.64
31337;BME280;22846;42.654;23.314;2022-07-04T05:02:25;94794.00;;;30.22;47.76
31337;BME280;22846;42.654;23.314;2022-07-04T05:04:50;94795.53;;;30.23;48.30
31337;BME280;22846;42.654;23.314;2022-07-04T05:07:15;94789.25;;;30.22;47.72
31337;BME280;22846;42.654;23.314;2022-07-04T05:09:41;94792.28;;;30.24;48.01
31337;BME280;22846;42.654;23.314;2022-07-04T05:12:06;94793.06;;;30.25;48.36
31337;BME280;22846;42.654;23.314;2022-07-04T05:14:31;94789.53;;;30.24;48.04
31337;BME280;22846;42.654;23.314;2022-07-04T05:16:57;94788.31;;;30.25;48.23
31337;BME280;22846;42.654;23.314;2022-07-04T05:19:22;94787.06;;;30.26;47.99
31337;BME280;22846;42.654;23.314;2022-07-04T05:21:47;94787.84;;;30.27;47.89
31337;BME280;22846;42.654;23.314;2022-07-04T05:24:12;94789.34;;;30.28;48.10
31337;BME280;22846;42.654;23.314;2022-07-04T05:26:38;94790.88;;;30.29;48.32
31337;BME280;22846;42.654;23.314;2022-07-04T05:29:03;94789.66;;;30.30;48.78
31337;BME280;22846;42.654;23.314;2022-07-04T05:31:28;94785.34;;;30.29;48.99
31337;BME280;22846;42.654;23.314;2022-07-04T05:33:54;94782.16;;;30.30;48.50
31337;BME280;22846;42.654;23.314;2022-07-04T05:36:19;94785.66;;;30.31;48.46
31337;BME280;22846;42.654;23.314;2022-07-04T05:38:45;94785.66;;;30.31;48.49
31337;BME280;22846;42.654;23.314;2022-07-04T05:41:10;94791.47;;;30.33;47.66
31337;BME280;22846;42.654;23.314;2022-07-04T05:43:35;94794.22;;;30.33;48.02
31337;BME280;22846;42.654;23.314;2022-07-04T05:46:00;94800.03;;;30.35;48.46
31337;BME280;22846;42.654;23.314;2022-07-04T05:48:26;94788.22;;;30.34;47.55
31337;BME280;22846;42.654;23.314;2022-07-04T05:50:51;94792.50;;;30.35;47.42
31337;BME280;22846;42.654;23.314;2022-07-04T05:53:16;94793.28;;;30.36;47.41
31337;BME280;22846;42.654;23.314;2022-07-04T05:55:42;94804.59;;;30.38;46.82
31337;BME280;22846;42.654;23.314;2022-07-04T05:58:07;94796.31;;;30.38;47.21
31337;BME280;22846;42.654;23.314;2022-07-04T06:00:32;94797.09;;;30.38;47.05
31337;BME280;22846;42.654;23.314;2022-07-04T06:02:57;94793.09;;;30.39;47.12
31337;BME280;22846;42.654;23.314;2022-07-04T06:05:23;94802.13;;;30.40;46.85
31337;BME280;22846;42.654;23.314;2022-07-04T06:07:48;94792.63;;;30.41;46.65
31337;BME280;22846;42.654;23.314;2022-07-04T06:10:13;94797.66;;;30.42;46.86
31337;BME280;22846;42.654;23.314;2022-07-04T06:12:39;94798.44;;;30.43;46.94
31337;BME280;22846;42.654;23.314;2022-07-04T06:15:04;94791.69;;;30.44;46.67
31337;BME280;22846;42.654;23.314;2022-07-04T06:17:31;94792.44;;;30.44;46.95
31337;BME280;22846;42.654;23.314;2022-07-04T06:19:56;94790.47;;;30.45;46.53
31337;BME280;22846;42.654;23.314;2022-07-04T06:22:21;94796.72;;;30.45;46.61
31337;BME280;22846;42.654;23.314;2022-07-04T06:24:47;94794.72;;;30.46;46.95
31337;BME280;22846;42.654;23.314;2022-07-04T06:27:12;94789.53;;;30.48;46.94
31337;BME280;22846;42.654;23.314;2022-07-04T06:29:37;94795.03;;;30.48;46.96
31337;BME280;22846;42.654;23.314;2022-07-04T06:32:03;94759.59;;;30.32;46.52
31337;BME280;22846;42.654;23.314;2022-07-04T06:34:28;94794.59;;;30.49;46.87
31337;BME280;22846;42.654;23.314;2022-07-04T06:37:12;94782.28;;;30.50;46.98
31337;BME280;22846;42.654;23.314;2022-07-04T06:39:37;94788.09;;;30.52;46.87
31337;BME280;22846;42.654;23.314;2022-07-04T06:42:02;94785.34;;;30.52;46.74
31337;BME280;22846;42.654;23.314;2022-07-04T06:44:28;94781.34;;;30.53;46.92
31337;BME280;22846;42.654;23.314;2022-07-04T06:46:53;94787.66;;;30.54;46.87
31337;BME280;22846;42.654;23.314;2022-07-04T06:49:18;94784.91;;;30.54;46.66
31337;BME280;22846;42.654;23.314;2022-07-04T06:51:44;94791.91;;;30.55;46.76
31337;BME280;22846;42.654;23.314;2022-07-04T06:54:09;94787.91;;;30.56;46.69
31337;BME280;22846;42.654;23.314;2022-07-04T06:56:34;94775.66;;;30.57;46.66
31337;BME280;22846;42.654;23.314;2022-07-04T06:59:00;94778.41;;;30.57;46.69
31337;BME280;22846;42.654;23.314;2022-07-04T07:01:25;94780.69;;;30.58;46.47
31337;BME280;22846;42.654;23.314;2022-07-04T07:03:50;94777.19;;;30.58;46.85
31337;BME280;22846;42.654;23.314;2022-07-04T07:06:16;94772.41;;;30.58;46.46
31337;BME280;22846;42.654;23.314;2022-07-04T07:08:41;94772.41;;;30.58;46.52
31337;BME280;22846;42.654;23.314;2022-07-04T07:11:06;94773.94;;;30.59;46.47
31337;BME280;22846;42.654;23.314;2022-07-04T07:13:41;94776.69;;;30.59;46.45
31337;BME280;22846;42.654;23.314;2022-07-04T07:16:06;94769.19;;;30.60;46.70
31337;BME280;22846;42.654;23.314;2022-07-04T07:18:31;94770.72;;;30.61;46.56
31337;BME280;22846;42.654;23.314;2022-07-04T07:20:57;94760.91;;;30.60;46.78
31337;BME280;22846;42.654;23.314;2022-07-04T07:23:22;94756.44;;;30.62;46.66
31337;BME280;22846;42.654;23.314;2022-07-04T07:25:47;94765.47;;;30.63;46.81
31337;BME280;22846;42.654;23.314;2022-07-04T07:28:13;94768.22;;;30.63;46.38
31337;BME280;22846;42.654;23.314;2022-07-04T07:30:38;94755.22;;;30.63;46.48
31337;BME280;22846;42.654;23.314;2022-07-04T07:33:03;94755.97;;;30.64;46.69
31337;BME280;22846;42.654;23.314;2022-07-04T07:35:29;94749.22;;;30.65;46.29
31337;BME280;22846;42.654;23.314;2022-07-04T07:37:54;94749.22;;;30.65;46.28
31337;BME280;22846;42.654;23.314;2022-07-04T07:40:19;94751.50;;;30.66;46.39
31337;BME280;22846;42.654;23.314;2022-07-04T07:42:45;94755.78;;;30.67;46.24
31337;BME280;22846;42.654;23.314;2022-07-04T07:45:10;94750.72;;;30.66;46.39
31337;BME280;22846;42.654;23.314;2022-07-04T07:47:35;94748.28;;;30.68;46.43
31337;BME280;22846;42.654;23.314;2022-07-04T07:50:00;94748.28;;;30.68;46.38
31337;BME280;22846;42.654;23.314;2022-07-04T07:52:28;94754.53;;;30.68;46.47
31337;BME280;22846;42.654;23.314;2022-07-04T07:54:53;94748.28;;;30.68;46.39
31337;BME280;22846;42.654;23.314;2022-07-04T07:57:19;94747.78;;;30.69;46.71
31337;BME280;22846;42.654;23.314;2022-07-04T07:59:44;94740.28;;;30.70;46.78
31337;BME280;22846;42.654;23.314;2022-07-04T08:02:09;94740.28;;;30.70;46.35
31337;BME280;22846;42.654;23.314;2022-07-04T08:04:34;94737.53;;;30.70;46.38
31337;BME280;22846;42.654;23.314;2022-07-04T08:07:01;94747.31;;;30.71;46.33
31337;BME280;22846;42.654;23.314;2022-07-04T08:09:26;94742.56;;;30.71;46.55
31337;BME280;22846;42.654;23.314;2022-07-04T08:11:51;94742.56;;;30.71;46.29
31337;BME280;22846;42.654;23.314;2022-07-04T08:14:17;94740.53;;;30.72;46.36
31337;BME280;22846;42.654;23.314;2022-07-04T08:16:42;94737.78;;;30.72;46.29
31337;BME280;22846;42.654;23.314;2022-07-04T08:19:07;94730.28;;;30.72;46.25
31337;BME280;22846;42.654;23.314;2022-07-04T08:21:33;94747.59;;;30.73;46.37
31337;BME280;22846;42.654;23.314;2022-07-04T08:23:58;94740.09;;;30.73;46.69
31337;BME280;22846;42.654;23.314;2022-07-04T08:26:24;94736.56;;;30.73;46.76
31337;BME280;22846;42.654;23.314;2022-07-04T08:28:50;94732.56;;;30.73;46.22
31337;BME280;22846;42.654;23.314;2022-07-04T08:31:17;94731.81;;;30.73;46.65
31337;BME280;22846;42.654;23.314;2022-07-04T08:33:42;94735.31;;;30.73;46.29
31337;BME280;22846;42.654;23.314;2022-07-04T08:36:08;94727.03;;;30.73;46.34
31337;BME280;22846;42.654;23.314;2022-07-04T08:38:33;94723.53;;;30.73;46.41
31337;BME280;22846;42.654;23.314;2022-07-04T08:40:58;94727.03;;;30.73;46.31
31337;BME280;22846;42.654;23.314;2022-07-04T08:43:27;94719.53;;;30.74;46.30
31337;BME280;22846;42.654;23.314;2022-07-04T08:45:54;94719.53;;;30.74;46.27
31337;BME280;22846;42.654;23.314;2022-07-04T08:48:22;94717.53;;;30.74;46.72
31337;BME280;22846;42.654;23.314;2022-07-04T08:50:49;94715.53;;;30.75;46.76
31337;BME280;22846;42.654;23.314;2022-07-04T08:53:20;94721.81;;;30.75;46.32
31337;BME280;22846;42.654;23.314;2022-07-04T08:55:47;94716.28;;;30.75;46.64
31337;BME280;22846;42.654;23.314;2022-07-04T08:58:32;94719.06;;;30.75;46.32
31337;BME280;22846;42.654;23.314;2022-07-04T09:01:03;94712.78;;;30.75;46.34
31337;BME280;22846;42.654;23.314;2022-07-04T09:03:28;94717.03;;;30.76;46.43
31337;BME280;22846;42.654;23.314;2022-07-04T09:05:55;94716.28;;;30.75;46.40
31337;BME280;22846;42.654;23.314;2022-07-04T09:08:20;94715.53;;;30.75;46.34
31337;BME280;22846;42.654;23.314;2022-07-04T09:10:46;94708.75;;;30.76;46.36
31337;BME280;22846;42.654;23.314;2022-07-04T09:13:12;94719.06;;;30.75;46.55
31337;BME280;22846;42.654;23.314;2022-07-04T09:15:43;94712.31;;;30.76;46.45
31337;BME280;22846;42.654;23.314;2022-07-04T09:18:25;94716.59;;;30.77;46.40
31337;BME280;22846;42.654;23.314;2022-07-04T09:20:55;94713.81;;;30.77;46.45
31337;BME280;22846;42.654;23.314;2022-07-04T09:23:25;94719.34;;;30.77;46.40
31337;BME280;22846;42.654;23.314;2022-07-04T09:26:10;94719.34;;;30.77;46.43
31337;BME280;22846;42.654;23.314;2022-07-04T09:28:35;94712.59;;;30.78;46.34
31337;BME280;22846;42.654;23.314;2022-07-04T09:31:01;94713.81;;;30.77;46.38
31337;BME280;22846;42.654;23.314;2022-07-04T09:36:34;94707.06;;;30.78;46.54
31337;BME280;22846;42.654;23.314;2022-07-04T09:47:00;94695.53;;;30.80;46.45
31337;BME280;22846;42.654;23.314;2022-07-04T09:49:57;94690.78;;;30.80;46.34
31337;BME280;22846;42.654;23.314;2022-07-04T09:52:22;94696.28;;;30.80;46.28
31337;BME280;22846;42.654;23.314;2022-07-04T09:54:47;94699.34;;;30.82;46.41
31337;BME280;22846;42.654;23.314;2022-07-04T09:57:13;94697.81;;;30.81;46.42
31337;BME280;22846;42.654;23.314;2022-07-04T09:59:46;94695.84;;;30.82;46.42
31337;BME280;22846;42.654;23.314;2022-07-04T10:02:12;94692.31;;;30.81;46.85
31337;BME280;22846;42.654;23.314;2022-07-04T10:04:49;94699.34;;;30.82;46.78
31337;BME280;22846;42.654;23.314;2022-07-04T10:07:37;94702.88;;;30.83;46.54
31337;BME280;22846;42.654;23.314;2022-07-04T10:10:19;94700.13;;;30.83;46.73
31337;BME280;22846;42.654;23.314;2022-07-04T10:12:48;94700.88;;;30.83;46.76
31337;BME280;22846;42.654;23.314;2022-07-04T10:15:13;94698.09;;;30.83;46.28
31337;BME280;22846;42.654;23.314;2022-07-04T10:17:39;94700.88;;;30.83;46.75
31337;BME280;22846;42.654;23.314;2022-07-04T10:20:05;94699.63;;;30.84;46.35
31337;BME280;22846;42.654;23.314;2022-07-04T10:22:31;94696.38;;;30.86;46.27
31337;BME280;22846;42.654;23.314;2022-07-04T10:24:56;94692.09;;;30.85;46.36
31337;BME280;22846;42.654;23.314;2022-07-04T10:27:21;94687.34;;;30.85;46.34
31337;BME280;22846;42.654;23.314;2022-07-04T10:29:46;94686.88;;;30.87;46.58
31337;BME280;22846;42.654;23.314;2022-07-04T10:32:12;94686.88;;;30.87;46.39
31337;BME280;22846;42.654;23.314;2022-07-04T10:34:41;94680.59;;;30.86;46.51
31337;BME280;22846;42.654;23.314;2022-07-04T10:37:06;94682.59;;;30.86;46.41
31337;BME280;22846;42.654;23.314;2022-07-04T10:39:32;94677.84;;;30.86;46.73
31337;BME280;22846;42.654;23.314;2022-07-04T10:41:58;94679.38;;;30.87;46.29
31337;BME280;22846;42.654;23.314;2022-07-04T10:44:23;94675.34;;;30.88;46.30
31337;BME280;22846;42.654;23.314;2022-07-04T10:46:50;94673.84;;;30.87;46.48
31337;BME280;22846;42.654;23.314;2022-07-04T10:56:52;94668.59;;;30.89;46.29
31337;BME280;22846;42.654;23.314;2022-07-04T10:59:19;94665.81;;;30.89;46.29
31337;BME280;22846;42.654;23.314;2022-07-04T11:01:49;94660.31;;;30.89;46.64
31337;BME280;22846;42.654;23.314;2022-07-04T11:04:44;94661.09;;;30.90;46.35
31337;BME280;22846;42.654;23.314;2022-07-04T11:07:00;94653.56;;;30.90;46.43
31337;BME280;22846;42.654;23.314;2022-07-04T11:09:26;94651.56;;;30.91;46.28
31337;BME280;22846;42.654;23.314;2022-07-04T11:11:58;94648.03;;;30.90;46.31
31337;BME280;22846;42.654;23.314;2022-07-04T11:14:43;94650.78;;;30.90;46.33
31337;BME280;22846;42.654;23.314;2022-07-04T11:17:10;94647.56;;;30.92;46.66
31337;BME280;22846;42.654;23.314;2022-07-04T11:19:36;94646.03;;;30.91;46.35
31337;BME280;22846;42.654;23.314;2022-07-04T11:22:01;94641.28;;;30.91;46.58
31337;BME280;22846;42.654;23.314;2022-07-04T11:24:27;94647.56;;;30.92;46.20
31337;BME280;22846;42.654;23.314;2022-07-04T11:26:52;94651.06;;;30.92;46.31
31337;BME280;22846;42.654;23.314;2022-07-04T11:29:18;94649.06;;;30.93;46.67
31337;BME280;22846;42.654;23.314;2022-07-04T11:31:44;94648.31;;;30.92;46.28
31337;BME280;22846;42.654;23.314;2022-07-04T11:34:09;94646.31;;;30.93;46.62
31337;BME280;22846;42.654;23.314;2022-07-04T11:36:35;94647.09;;;30.93;46.61
31337;BME280;22846;42.654;23.314;2022-07-04T11:39:02;94633.28;;;30.93;46.26
31337;BME280;22846;42.654;23.314;2022-07-04T11:41:29;94632.50;;;30.93;46.21
31337;BME280;22846;42.654;23.314;2022-07-04T11:44:16;94638.81;;;30.93;46.16
31337;BME280;22846;42.654;23.314;2022-07-04T11:47:04;94632.50;;;30.93;46.29
31337;BME280;22846;42.654;23.314;2022-07-04T11:49:30;94626.25;;;30.92;46.17
31337;BME280;22846;42.654;23.314;2022-07-04T11:51:55;94623.00;;;30.94;46.13
31337;BME280;22846;42.654;23.314;2022-07-04T11:54:21;94620.22;;;30.94;46.27
31337;BME280;22846;42.654;23.314;2022-07-04T11:56:46;94613.47;;;30.95;46.21
31337;BME280;22846;42.654;23.314;2022-07-04T11:59:13;94612.72;;;30.94;46.22
31337;BME280;22846;42.654;23.314;2022-07-04T12:01:39;94607.94;;;30.95;46.21
31337;BME280;22846;42.654;23.314;2022-07-04T12:04:14;94607.94;;;30.95;46.50
31337;BME280;22846;42.654;23.314;2022-07-04T12:06:41;94599.66;;;30.95;46.04
31337;BME280;22846;42.654;23.314;2022-07-04T12:09:06;94600.44;;;30.95;46.58
31337;BME280;22846;42.654;23.314;2022-07-04T12:14:29;94588.63;;;30.95;46.65
31337;BME280;22846;42.654;23.314;2022-07-04T12:17:13;94596.91;;;30.95;46.36
31337;BME280;22846;42.654;23.314;2022-07-04T12:24:51;94593.69;;;30.96;46.13
31337;BME280;22846;42.654;23.314;2022-07-04T12:27:19;94591.66;;;30.97;46.20
31337;BME280;22846;42.654;23.314;2022-07-04T12:29:48;94582.66;;;30.96;46.30
31337;BME280;22846;42.654;23.314;2022-07-04T12:32:13;94584.91;;;30.98;46.19
31337;BME280;22846;42.654;23.314;2022-07-04T12:34:39;94586.16;;;30.97;46.57
31337;BME280;22846;42.654;23.314;2022-07-04T12:37:06;94584.91;;;30.98;46.12
31337;BME280;22846;42.654;23.314;2022-07-04T12:39:37;94580.63;;;30.97;46.34
31337;BME280;22846;42.654;23.314;2022-07-04T12:42:24;94579.41;;;30.98;46.13
31337;BME280;22846;42.654;23.314;2022-07-04T12:44:48;94579.41;;;30.98;46.20
31337;BME280;22846;42.654;23.314;2022-07-04T12:47:17;94579.41;;;30.98;46.02
31337;BME280;22846;42.654;23.314;2022-07-04T12:49:43;94576.63;;;30.98;46.11
31337;BME280;22846;42.654;23.314;2022-07-04T12:52:13;94571.84;;;30.98;46.06
31337;BME280;22846;42.654;23.314;2022-07-04T12:54:39;94572.63;;;30.99;46.05
31337;BME280;22846;42.654;23.314;2022-07-04T12:57:10;94576.91;;;31.00;45.99
31337;BME280;22846;42.654;23.314;2022-07-04T12:59:35;94570.63;;;30.99;46.32
31337;BME280;22846;42.654;23.314;2022-07-04T13:02:01;94573.38;;;30.99;46.46
31337;BME280;22846;42.654;23.314;2022-07-04T13:04:26;94565.88;;;31.00;46.24
31337;BME280;22846;42.654;23.314;2022-07-04T13:06:52;94569.38;;;31.00;46.09
31337;BME280;22846;42.654;23.314;2022-07-04T13:09:17;94571.41;;;31.00;46.43
31337;BME280;22846;42.654;23.314;2022-07-04T13:11:43;94566.63;;;31.00;46.04
31337;BME280;22846;42.654;23.314;2022-07-04T13:14:27;94566.63;;;31.00;46.28